sensor_id;sensor_type;location;lat;lon;timestamp;pressure;altitude;pressure_sealevel;temperature;humidity
50854;BME280;44154;45.506;-122.806;2022-11-20T00:00:15;101519.41;;;24.76;26.87
50854;BME280;44154;45.506;-122.806;2022-11-20T00:02:41;101537.47;;;24.77;26.59
50854;BME280;44154;45.506;-122.806;2022-11-20T00:05:08;101543.44;;;24.74;26.77
50854;BME280;44154;45.506;-122.806;2022-11-20T00:07:34;101535.13;;;24.69;26.82
50854;BME280;44154;45.506;-122.806;2022-11-20T00:10:00;101527.59;;;24.65;26.75
50854;BME280;44154;45.506;-122.806;2022-11-20T00:12:27;101524.50;;;24.61;26.76
50854;BME280;44154;45.506;-122.806;2022-11-20T00:14:53;101523.06;;;24.58;26.89
50854;BME280;44154;45.506;-122.806;2022-11-20T00:17:19;101509.00;;;24.43;26.68
50854;BME280;44154;45.506;-122.806;2022-11-20T00:19:45;101522.72;;;24.55;26.77
50854;BME280;44154;45.506;-122.806;2022-11-20T00:22:12;101522.34;;;24.63;26.87
50854;BME280;44154;45.506;-122.806;2022-11-20T00:24:38;101523.06;;;24.70;26.62
50854;BME280;44154;45.506;-122.806;2022-11-20T00:27:04;101510.25;;;24.71;26.69
50854;BME280;44154;45.506;-122.806;2022-11-20T00:29:30;101509.75;;;24.74;26.68
50854;BME280;44154;45.506;-122.806;2022-11-20T00:31:56;101517.72;;;24.75;26.62
50854;BME280;44154;45.506;-122.806;2022-11-20T00:34:22;101508.81;;;24.68;26.71
50854;BME280;44154;45.506;-122.806;2022-11-20T00:36:48;101532.72;;;24.73;26.68
50854;BME280;44154;45.506;-122.806;2022-11-20T00:39:15;101534.25;;;24.69;26.87
50854;BME280;44154;45.506;-122.806;2022-11-20T00:41:41;101523.22;;;24.64;26.68
50854;BME280;44154;45.506;-122.806;2022-11-20T00:44:07;101512.09;;;24.47;26.72
50854;BME280;44154;45.506;-122.806;2022-11-20T00:46:33;101479.03;;;24.24;26.91
50854;BME280;44154;45.506;-122.806;2022-11-20T00:48:59;101494.16;;;24.39;26.76
50854;BME280;44154;45.506;-122.806;2022-11-20T00:51:27;101528.06;;;24.62;26.64
50854;BME280;44154;45.506;-122.806;2022-11-20T00:53:57;101519.88;;;24.62;26.57
50854;BME280;44154;45.506;-122.806;2022-11-20T00:56:25;101518.56;;;24.76;26.52
50854;BME280;44154;45.506;-122.806;2022-11-20T00:58:52;101512.97;;;24.71;26.29
50854;BME280;44154;45.506;-122.806;2022-11-20T01:01:23;101519.66;;;24.75;26.63
50854;BME280;44154;45.506;-122.806;2022-11-20T01:03:51;101533.56;;;24.73;26.67
50854;BME280;44154;45.506;-122.806;2022-11-20T01:06:24;101528.78;;;24.69;26.51
50854;BME280;44154;45.506;-122.806;2022-11-20T01:08:53;101527.00;;;24.63;26.78
50854;BME280;44154;45.506;-122.806;2022-11-20T01:11:24;101529.16;;;24.61;26.82
50854;BME280;44154;45.506;-122.806;2022-11-20T01:13:52;101526.84;;;24.57;26.81
50854;BME280;44154;45.506;-122.806;2022-11-20T01:16:24;101515.19;;;24.50;26.59
50854;BME280;44154;45.506;-122.806;2022-11-20T01:18:54;101517.00;;;24.56;26.56
50854;BME280;44154;45.506;-122.806;2022-11-20T01:21:32;101520.72;;;24.62;26.59
50854;BME280;44154;45.506;-122.806;2022-11-20T01:23:59;101535.47;;;24.73;26.67
50854;BME280;44154;45.506;-122.806;2022-11-20T01:26:28;101531.19;;;24.77;26.66
50854;BME280;44154;45.506;-122.806;2022-11-20T01:28:56;101508.69;;;24.63;26.54
50854;BME280;44154;45.506;-122.806;2022-11-20T01:31:25;101529.41;;;24.71;26.42
50854;BME280;44154;45.506;-122.806;2022-11-20T01:33:54;101527.97;;;24.68;26.55
50854;BME280;44154;45.506;-122.806;2022-11-20T01:36:22;101532.31;;;24.57;26.77
50854;BME280;44154;45.506;-122.806;2022-11-20T01:38:53;101530.69;;;24.56;26.53
50854;BME280;44154;45.506;-122.806;2022-11-20T01:41:20;101528.66;;;24.52;26.51
50854;BME280;44154;45.506;-122.806;2022-11-20T01:44:05;101477.59;;;24.10;26.80
50854;BME280;44154;45.506;-122.806;2022-11-20T01:46:42;101538.28;;;24.54;26.49
50854;BME280;44154;45.506;-122.806;2022-11-20T01:49:37;101526.97;;;24.51;26.58
50854;BME280;44154;45.506;-122.806;2022-11-20T01:52:27;101527.69;;;24.58;26.61
50854;BME280;44154;45.506;-122.806;2022-11-20T01:55:00;101551.41;;;24.76;26.41
50854;BME280;44154;45.506;-122.806;2022-11-20T01:57:30;101522.72;;;24.55;26.57
50854;BME280;44154;45.506;-122.806;2022-11-20T02:00:11;101558.31;;;24.67;26.50
50854;BME280;44154;45.506;-122.806;2022-11-20T02:02:41;101503.41;;;24.26;26.53
50854;BME280;44154;45.506;-122.806;2022-11-20T02:05:38;101577.78;;;24.58;26.38
50854;BME280;44154;45.506;-122.806;2022-11-20T02:08:07;101577.06;;;24.51;26.63
50854;BME280;44154;45.506;-122.806;2022-11-20T02:10:34;101580.75;;;24.45;26.54
50854;BME280;44154;45.506;-122.806;2022-11-20T02:13:01;101595.63;;;24.49;26.67
50854;BME280;44154;45.506;-122.806;2022-11-20T02:15:46;101528.47;;;24.11;26.48
50854;BME280;44154;45.506;-122.806;2022-11-20T02:18:16;101591.72;;;24.57;26.59
50854;BME280;44154;45.506;-122.806;2022-11-20T02:20:45;101592.84;;;24.68;26.29
50854;BME280;44154;45.506;-122.806;2022-11-20T02:25:46;101592.84;;;24.68;26.37
50854;BME280;44154;45.506;-122.806;2022-11-20T02:28:13;101588.91;;;24.64;26.38
50854;BME280;44154;45.506;-122.806;2022-11-20T02:30:40;101578.75;;;24.52;26.48
50854;BME280;44154;45.506;-122.806;2022-11-20T02:33:06;101597.59;;;24.61;26.33
50854;BME280;44154;45.506;-122.806;2022-11-20T02:38:01;101571.44;;;24.34;26.53
50854;BME280;44154;45.506;-122.806;2022-11-20T02:40:28;101592.28;;;24.47;26.53
50854;BME280;44154;45.506;-122.806;2022-11-20T02:42:55;101581.47;;;24.52;26.28
50854;BME280;44154;45.506;-122.806;2022-11-20T02:45:23;101594.13;;;24.65;26.43
50854;BME280;44154;45.506;-122.806;2022-11-20T02:47:50;101589.88;;;24.69;26.36
50854;BME280;44154;45.506;-122.806;2022-11-20T02:50:16;101587.59;;;24.78;26.34
50854;BME280;44154;45.506;-122.806;2022-11-20T02:52:42;101577.25;;;24.68;26.39
50854;BME280;44154;45.506;-122.806;2022-11-20T02:55:09;101566.03;;;24.58;26.19
50854;BME280;44154;45.506;-122.806;2022-11-20T02:57:36;101574.69;;;24.55;26.29
50854;BME280;44154;45.506;-122.806;2022-11-20T03:00:03;101582.00;;;24.61;26.37
50854;BME280;44154;45.506;-122.806;2022-11-20T03:02:30;101581.47;;;24.52;26.49
50854;BME280;44154;45.506;-122.806;2022-11-20T03:04:57;101578.00;;;24.45;26.42
50854;BME280;44154;45.506;-122.806;2022-11-20T03:07:23;101560.88;;;24.38;26.46
50854;BME280;44154;45.506;-122.806;2022-11-20T03:09:50;101572.44;;;24.52;26.44
50854;BME280;44154;45.506;-122.806;2022-11-20T03:12:16;101571.13;;;24.54;26.29
50854;BME280;44154;45.506;-122.806;2022-11-20T03:14:42;101567.09;;;24.69;26.18
50854;BME280;44154;45.506;-122.806;2022-11-20T03:17:08;101570.69;;;24.69;26.21
50854;BME280;44154;45.506;-122.806;2022-11-20T03:19:34;101567.34;;;24.67;26.22
50854;BME280;44154;45.506;-122.806;2022-11-20T03:22:01;101563.66;;;24.62;26.23
50854;BME280;44154;45.506;-122.806;2022-11-20T03:24:27;101578.53;;;24.66;26.10
50854;BME280;44154;45.506;-122.806;2022-11-20T03:26:53;101572.06;;;24.48;26.30
50854;BME280;44154;45.506;-122.806;2022-11-20T03:29:19;101586.34;;;24.50;26.16
50854;BME280;44154;45.506;-122.806;2022-11-20T03:31:46;101588.47;;;24.48;26.38
50854;BME280;44154;45.506;-122.806;2022-11-20T03:34:12;101600.88;;;24.51;26.28
50854;BME280;44154;45.506;-122.806;2022-11-20T03:36:42;101613.03;;;24.55;26.12
50854;BME280;44154;45.506;-122.806;2022-11-20T03:39:09;101610.31;;;24.67;26.23
50854;BME280;44154;45.506;-122.806;2022-11-20T03:41:40;101615.69;;;24.73;26.13
50854;BME280;44154;45.506;-122.806;2022-11-20T03:44:09;101616.63;;;24.79;26.32
50854;BME280;44154;45.506;-122.806;2022-11-20T03:46:36;101620.94;;;24.75;26.12
50854;BME280;44154;45.506;-122.806;2022-11-20T03:49:03;101631.16;;;24.68;26.23
50854;BME280;44154;45.506;-122.806;2022-11-20T03:51:32;101626.97;;;24.65;26.23
50854;BME280;44154;45.506;-122.806;2022-11-20T03:54:04;101624.31;;;24.58;26.11
50854;BME280;44154;45.506;-122.806;2022-11-20T03:56:33;101622.28;;;24.42;26.04
50854;BME280;44154;45.506;-122.806;2022-11-20T03:59:00;101641.06;;;24.50;26.38
50854;BME280;44154;45.506;-122.806;2022-11-20T04:01:29;101641.78;;;24.57;26.01
50854;BME280;44154;45.506;-122.806;2022-11-20T04:03:56;101646.84;;;24.61;26.33
50854;BME280;44154;45.506;-122.806;2022-11-20T04:06:49;101650.66;;;24.71;26.26
50854;BME280;44154;45.506;-122.806;2022-11-20T04:09:15;101647.44;;;24.74;26.18
50854;BME280;44154;45.506;-122.806;2022-11-20T04:11:41;101642.69;;;24.70;26.12
50854;BME280;44154;45.506;-122.806;2022-11-20T04:14:13;101635.91;;;24.61;25.96
50854;BME280;44154;45.506;-122.806;2022-11-20T04:16:39;101617.53;;;24.49;26.13
50854;BME280;44154;45.506;-122.806;2022-11-20T04:19:10;101643.03;;;24.62;26.01
50854;BME280;44154;45.506;-122.806;2022-11-20T04:21:37;101574.28;;;24.16;26.08
50854;BME280;44154;45.506;-122.806;2022-11-20T04:24:04;101642.75;;;24.51;26.21
50854;BME280;44154;45.506;-122.806;2022-11-20T04:26:30;101632.50;;;24.47;26.16
50854;BME280;44154;45.506;-122.806;2022-11-20T04:28:58;101654.84;;;24.62;26.22
50854;BME280;44154;45.506;-122.806;2022-11-20T04:31:27;101647.09;;;24.71;26.03
50854;BME280;44154;45.506;-122.806;2022-11-20T04:33:54;101630.06;;;24.69;25.99
50854;BME280;44154;45.506;-122.806;2022-11-20T04:36:27;101635.22;;;24.77;25.87
50854;BME280;44154;45.506;-122.806;2022-11-20T04:38:56;101648.53;;;24.73;25.90
50854;BME280;44154;45.506;-122.806;2022-11-20T04:41:31;101630.84;;;24.57;25.92
50854;BME280;44154;45.506;-122.806;2022-11-20T04:43:59;101656.47;;;24.63;25.94
50854;BME280;44154;45.506;-122.806;2022-11-20T04:46:30;101658.22;;;24.57;26.13
50854;BME280;44154;45.506;-122.806;2022-11-20T04:48:56;101657.03;;;24.53;26.36
50854;BME280;44154;45.506;-122.806;2022-11-20T04:51:23;101619.38;;;24.25;26.23
50854;BME280;44154;45.506;-122.806;2022-11-20T04:53:49;101668.75;;;24.61;26.02
50854;BME280;44154;45.506;-122.806;2022-11-20T04:56:16;101652.91;;;24.63;26.12
50854;BME280;44154;45.506;-122.806;2022-11-20T04:58:42;101666.38;;;24.76;25.92
50854;BME280;44154;45.506;-122.806;2022-11-20T05:01:12;101676.66;;;24.81;25.93
50854;BME280;44154;45.506;-122.806;2022-11-20T05:03:39;101667.00;;;24.78;25.90
50854;BME280;44154;45.506;-122.806;2022-11-20T05:06:14;101673.41;;;24.72;26.19
50854;BME280;44154;45.506;-122.806;2022-11-20T05:08:41;101675.19;;;24.66;26.16
50854;BME280;44154;45.506;-122.806;2022-11-20T05:11:12;101684.09;;;24.62;25.90
50854;BME280;44154;45.506;-122.806;2022-11-20T05:13:39;101690.22;;;24.57;26.08
50854;BME280;44154;45.506;-122.806;2022-11-20T05:16:08;101683.78;;;24.51;26.07
50854;BME280;44154;45.506;-122.806;2022-11-20T05:18:35;101668.22;;;24.52;25.91
50854;BME280;44154;45.506;-122.806;2022-11-20T05:21:02;101679.22;;;24.64;25.94
50854;BME280;44154;45.506;-122.806;2022-11-20T05:23:30;101665.06;;;24.67;25.75
50854;BME280;44154;45.506;-122.806;2022-11-20T05:25:57;101677.81;;;24.73;25.83
50854;BME280;44154;45.506;-122.806;2022-11-20T05:28:24;101661.50;;;24.66;25.77
50854;BME280;44154;45.506;-122.806;2022-11-20T05:30:51;101661.94;;;24.63;25.76
50854;BME280;44154;45.506;-122.806;2022-11-20T05:33:18;101680.44;;;24.68;25.89
50854;BME280;44154;45.506;-122.806;2022-11-20T05:35:44;101656.66;;;24.50;25.85
50854;BME280;44154;45.506;-122.806;2022-11-20T05:38:11;101663.91;;;24.44;26.03
50854;BME280;44154;45.506;-122.806;2022-11-20T05:40:37;101691.53;;;24.54;26.04
50854;BME280;44154;45.506;-122.806;2022-11-20T05:43:03;101656.47;;;24.33;25.76
50854;BME280;44154;45.506;-122.806;2022-11-20T05:45:29;101652.22;;;24.37;25.79
50854;BME280;44154;45.506;-122.806;2022-11-20T05:48:00;101685.44;;;24.71;25.65
50854;BME280;44154;45.506;-122.806;2022-11-20T05:50:27;101616.78;;;24.30;25.70
50854;BME280;44154;45.506;-122.806;2022-11-20T05:52:54;101701.84;;;24.71;25.92
50854;BME280;44154;45.506;-122.806;2022-11-20T05:55:20;101665.84;;;24.55;25.70
50854;BME280;44154;45.506;-122.806;2022-11-20T05:57:46;101679.28;;;24.57;25.83
50854;BME280;44154;45.506;-122.806;2022-11-20T06:00:13;101686.00;;;24.61;25.89
50854;BME280;44154;45.506;-122.806;2022-11-20T06:02:39;101693.78;;;24.57;25.89
50854;BME280;44154;45.506;-122.806;2022-11-20T06:05:06;101651.38;;;24.24;26.04
50854;BME280;44154;45.506;-122.806;2022-11-20T06:07:32;101695.47;;;24.58;25.74
50854;BME280;44154;45.506;-122.806;2022-11-20T06:09:58;101696.25;;;24.66;25.75
50854;BME280;44154;45.506;-122.806;2022-11-20T06:12:24;101684.34;;;24.72;25.85
50854;BME280;44154;45.506;-122.806;2022-11-20T06:14:50;101697.13;;;24.78;25.78
50854;BME280;44154;45.506;-122.806;2022-11-20T06:17:17;101668.28;;;24.64;25.58
50854;BME280;44154;45.506;-122.806;2022-11-20T06:19:43;101695.66;;;24.75;25.55
50854;BME280;44154;45.506;-122.806;2022-11-20T06:22:09;101696.84;;;24.68;25.74
50854;BME280;44154;45.506;-122.806;2022-11-20T06:24:35;101612.41;;;24.11;25.89
50854;BME280;44154;45.506;-122.806;2022-11-20T06:27:01;101700.94;;;24.58;25.78
50854;BME280;44154;45.506;-122.806;2022-11-20T06:29:28;101683.75;;;24.39;25.92
50854;BME280;44154;45.506;-122.806;2022-11-20T06:31:54;101698.69;;;24.55;25.78
50854;BME280;44154;45.506;-122.806;2022-11-20T06:34:22;101706.59;;;24.64;25.76
50854;BME280;44154;45.506;-122.806;2022-11-20T06:36:49;101702.69;;;24.71;25.60
50854;BME280;44154;45.506;-122.806;2022-11-20T06:39:15;101695.28;;;24.72;25.74
50854;BME280;44154;45.506;-122.806;2022-11-20T06:41:41;101698.31;;;24.82;25.66
50854;BME280;44154;45.506;-122.806;2022-11-20T06:44:07;101697.69;;;24.80;25.46
50854;BME280;44154;45.506;-122.806;2022-11-20T06:46:33;101696.72;;;24.74;25.59
50854;BME280;44154;45.506;-122.806;2022-11-20T06:48:59;101674.63;;;24.57;25.69
50854;BME280;44154;45.506;-122.806;2022-11-20T06:51:26;101680.59;;;24.54;25.73
50854;BME280;44154;45.506;-122.806;2022-11-20T06:53:53;101691.06;;;24.57;25.80
50854;BME280;44154;45.506;-122.806;2022-11-20T06:56:19;101691.53;;;24.54;25.84
50854;BME280;44154;45.506;-122.806;2022-11-20T06:58:45;101686.00;;;24.61;25.72
50854;BME280;44154;45.506;-122.806;2022-11-20T07:01:13;101685.16;;;24.61;25.61
50854;BME280;44154;45.506;-122.806;2022-11-20T07:03:40;101689.72;;;24.79;25.56
50854;BME280;44154;45.506;-122.806;2022-11-20T07:06:07;101684.38;;;24.84;25.57
50854;BME280;44154;45.506;-122.806;2022-11-20T07:08:34;101690.53;;;24.79;25.43
50854;BME280;44154;45.506;-122.806;2022-11-20T07:11:03;101681.97;;;24.75;25.54
50854;BME280;44154;45.506;-122.806;2022-11-20T07:13:29;101681.84;;;24.70;25.50
50854;BME280;44154;45.506;-122.806;2022-11-20T07:16:01;101686.34;;;24.65;25.59
50854;BME280;44154;45.506;-122.806;2022-11-20T07:18:27;101693.38;;;24.61;25.64
50854;BME280;44154;45.506;-122.806;2022-11-20T07:20:54;101698.31;;;24.52;25.71
50854;BME280;44154;45.506;-122.806;2022-11-20T07:23:20;101686.91;;;24.55;25.62
50854;BME280;44154;45.506;-122.806;2022-11-20T07:25:46;101715.53;;;24.71;25.49
50854;BME280;44154;45.506;-122.806;2022-11-20T07:28:12;101659.16;;;24.51;25.49
50854;BME280;44154;45.506;-122.806;2022-11-20T07:30:39;101700.44;;;24.80;25.58
50854;BME280;44154;45.506;-122.806;2022-11-20T07:33:05;101668.31;;;24.45;25.41
50854;BME280;44154;45.506;-122.806;2022-11-20T07:35:31;101716.97;;;24.73;25.42
50854;BME280;44154;45.506;-122.806;2022-11-20T07:37:58;101713.72;;;24.65;25.49
50854;BME280;44154;45.506;-122.806;2022-11-20T07:40:24;101708.94;;;24.60;25.56
50854;BME280;44154;45.506;-122.806;2022-11-20T07:42:52;101692.19;;;24.38;25.58
50854;BME280;44154;45.506;-122.806;2022-11-20T07:45:20;101734.25;;;24.55;25.64
50854;BME280;44154;45.506;-122.806;2022-11-20T07:47:47;101726.81;;;24.63;25.62
50854;BME280;44154;45.506;-122.806;2022-11-20T07:50:14;101719.09;;;24.71;25.38
50854;BME280;44154;45.506;-122.806;2022-11-20T07:52:40;101720.22;;;24.82;25.34
50854;BME280;44154;45.506;-122.806;2022-11-20T07:55:08;101709.38;;;24.75;25.55
50854;BME280;44154;45.506;-122.806;2022-11-20T07:57:34;101733.44;;;24.85;25.48
50854;BME280;44154;45.506;-122.806;2022-11-20T08:00:00;101726.84;;;24.74;25.24
50854;BME280;44154;45.506;-122.806;2022-11-20T08:02:27;101737.22;;;24.72;25.33
50854;BME280;44154;45.506;-122.806;2022-11-20T08:04:53;101731.81;;;24.66;25.56
50854;BME280;44154;45.506;-122.806;2022-11-20T08:07:19;101735.25;;;24.61;25.53
50854;BME280;44154;45.506;-122.806;2022-11-20T08:09:45;101729.84;;;24.54;25.43
50854;BME280;44154;45.506;-122.806;2022-11-20T08:12:21;101730.63;;;24.62;25.27
50854;BME280;44154;45.506;-122.806;2022-11-20T08:15:08;101705.84;;;24.56;25.47
50854;BME280;44154;45.506;-122.806;2022-11-20T08:17:34;101733.53;;;24.79;25.51
50854;BME280;44154;45.506;-122.806;2022-11-20T08:20:00;101715.06;;;24.74;25.31
50854;BME280;44154;45.506;-122.806;2022-11-20T08:22:26;101732.22;;;24.81;25.36
50854;BME280;44154;45.506;-122.806;2022-11-20T08:24:52;101686.41;;;24.46;25.26
50854;BME280;44154;45.506;-122.806;2022-11-20T08:27:19;101738.03;;;24.73;25.44
50854;BME280;44154;45.506;-122.806;2022-11-20T08:29:45;101722.56;;;24.67;25.33
50854;BME280;44154;45.506;-122.806;2022-11-20T08:32:11;101728.97;;;24.61;25.56
50854;BME280;44154;45.506;-122.806;2022-11-20T08:34:37;101702.09;;;24.39;25.64
50854;BME280;44154;45.506;-122.806;2022-11-20T08:37:03;101721.34;;;24.63;25.48
50854;BME280;44154;45.506;-122.806;2022-11-20T08:39:30;101732.19;;;24.69;25.39
50854;BME280;44154;45.506;-122.806;2022-11-20T08:41:56;101725.56;;;24.77;25.19
50854;BME280;44154;45.506;-122.806;2022-11-20T08:44:22;101710.19;;;24.76;25.20
50854;BME280;44154;45.506;-122.806;2022-11-20T08:46:48;101726.13;;;24.79;25.48
50854;BME280;44154;45.506;-122.806;2022-11-20T08:49:15;101688.31;;;24.57;25.30
50854;BME280;44154;45.506;-122.806;2022-11-20T08:51:42;101706.47;;;24.70;25.34
50854;BME280;44154;45.506;-122.806;2022-11-20T08:54:08;101711.59;;;24.67;25.47
50854;BME280;44154;45.506;-122.806;2022-11-20T08:56:35;101701.81;;;24.59;25.54
50854;BME280;44154;45.506;-122.806;2022-11-20T08:59:01;101694.16;;;24.49;25.48
50854;BME280;44154;45.506;-122.806;2022-11-20T09:01:29;101705.50;;;24.65;25.32
50854;BME280;44154;45.506;-122.806;2022-11-20T09:03:56;101703.50;;;24.72;25.09
50854;BME280;44154;45.506;-122.806;2022-11-20T09:06:22;101698.75;;;24.79;25.14
50854;BME280;44154;45.506;-122.806;2022-11-20T09:08:52;101685.53;;;24.76;25.24
50854;BME280;44154;45.506;-122.806;2022-11-20T09:11:19;101649.66;;;24.54;25.18
50854;BME280;44154;45.506;-122.806;2022-11-20T09:13:45;101669.03;;;24.52;25.13
50854;BME280;44154;45.506;-122.806;2022-11-20T09:16:11;101694.94;;;24.68;25.22
50854;BME280;44154;45.506;-122.806;2022-11-20T09:18:37;101697.78;;;24.62;25.22
50854;BME280;44154;45.506;-122.806;2022-11-20T09:21:09;101699.50;;;24.56;25.38
50854;BME280;44154;45.506;-122.806;2022-11-20T09:23:39;101682.97;;;24.51;25.50
50854;BME280;44154;45.506;-122.806;2022-11-20T09:26:13;101696.84;;;24.68;25.11
50854;BME280;44154;45.506;-122.806;2022-11-20T09:28:40;101703.06;;;24.75;25.13
50854;BME280;44154;45.506;-122.806;2022-11-20T09:31:24;101692.59;;;24.84;25.15
50854;BME280;44154;45.506;-122.806;2022-11-20T09:33:52;101682.72;;;24.83;25.17
50854;BME280;44154;45.506;-122.806;2022-11-20T09:36:18;101651.91;;;24.57;25.20
50854;BME280;44154;45.506;-122.806;2022-11-20T09:38:45;101695.28;;;24.72;25.19
50854;BME280;44154;45.506;-122.806;2022-11-20T09:47:07;101703.69;;;24.58;25.33
50854;BME280;44154;45.506;-122.806;2022-11-20T09:50:06;101705.66;;;24.70;25.11
50854;BME280;44154;45.506;-122.806;2022-11-20T09:53:13;101703.19;;;24.80;25.07
50854;BME280;44154;45.506;-122.806;2022-11-20T09:55:43;101704.13;;;24.86;25.11
50854;BME280;44154;45.506;-122.806;2022-11-20T10:00:47;101717.34;;;24.77;25.14
50854;BME280;44154;45.506;-122.806;2022-11-20T10:03:21;101718.88;;;24.73;25.08
50854;BME280;44154;45.506;-122.806;2022-11-20T10:05:56;101706.13;;;24.67;25.18
50854;BME280;44154;45.506;-122.806;2022-11-20T10:08:28;101703.09;;;24.56;25.17
50854;BME280;44154;45.506;-122.806;2022-11-20T10:11:12;101702.00;;;24.57;25.06
50854;BME280;44154;45.506;-122.806;2022-11-20T10:19:45;101682.69;;;24.71;24.87
50854;BME280;44154;45.506;-122.806;2022-11-20T10:22:32;101709.03;;;24.84;25.08
50854;BME280;44154;45.506;-122.806;2022-11-20T10:25:23;101715.66;;;24.76;24.85
50854;BME280;44154;45.506;-122.806;2022-11-20T10:30:44;101716.47;;;24.65;25.08
50854;BME280;44154;45.506;-122.806;2022-11-20T10:33:22;101722.25;;;24.56;25.10
50854;BME280;44154;45.506;-122.806;2022-11-20T10:35:58;101723.03;;;24.64;25.10
50854;BME280;44154;45.506;-122.806;2022-11-20T10:38:32;101737.22;;;24.72;24.88
50854;BME280;44154;45.506;-122.806;2022-11-20T10:41:02;101740.69;;;24.80;24.87
50854;BME280;44154;45.506;-122.806;2022-11-20T10:43:48;101734.50;;;24.84;24.91
50854;BME280;44154;45.506;-122.806;2022-11-20T10:46:20;101732.94;;;24.76;24.76
50854;BME280;44154;45.506;-122.806;2022-11-20T10:48:51;101740.53;;;24.74;25.07
50854;BME280;44154;45.506;-122.806;2022-11-20T10:51:35;101737.69;;;24.69;24.85
50854;BME280;44154;45.506;-122.806;2022-11-20T10:56:51;101716.13;;;24.42;25.00
50854;BME280;44154;45.506;-122.806;2022-11-20T10:59:45;101743.25;;;24.63;25.00
50854;BME280;44154;45.506;-122.806;2022-11-20T11:02:22;101742.69;;;24.72;24.70
50854;BME280;44154;45.506;-122.806;2022-11-20T11:04:53;101702.84;;;24.58;24.86
50854;BME280;44154;45.506;-122.806;2022-11-20T11:07:30;101739.50;;;24.87;24.83
50854;BME280;44154;45.506;-122.806;2022-11-20T11:09:59;101729.84;;;24.85;24.78
50854;BME280;44154;45.506;-122.806;2022-11-20T11:12:27;101738.78;;;24.80;24.90
50854;BME280;44154;45.506;-122.806;2022-11-20T11:14:55;101736.34;;;24.72;24.90
50854;BME280;44154;45.506;-122.806;2022-11-20T11:20:16;101748.34;;;24.59;24.74
50854;BME280;44154;45.506;-122.806;2022-11-20T11:25:34;101733.13;;;24.63;24.92
50854;BME280;44154;45.506;-122.806;2022-11-20T11:28:03;101730.06;;;24.71;24.94
50854;BME280;44154;45.506;-122.806;2022-11-20T11:30:41;101746.28;;;24.85;24.86
50854;BME280;44154;45.506;-122.806;2022-11-20T11:33:18;101745.44;;;24.84;24.64
50854;BME280;44154;45.506;-122.806;2022-11-20T11:35:47;101744.47;;;24.79;24.73
50854;BME280;44154;45.506;-122.806;2022-11-20T11:38:28;101754.47;;;24.73;24.82
50854;BME280;44154;45.506;-122.806;2022-11-20T11:40:56;101752.03;;;24.65;25.03
50854;BME280;44154;45.506;-122.806;2022-11-20T11:43:25;101753.81;;;24.59;24.75
50854;BME280;44154;45.506;-122.806;2022-11-20T11:46:31;101747.47;;;24.58;24.81
50854;BME280;44154;45.506;-122.806;2022-11-20T11:49:15;101748.41;;;24.71;24.89
50854;BME280;44154;45.506;-122.806;2022-11-20T11:52:10;101742.22;;;24.75;24.61
50854;BME280;44154;45.506;-122.806;2022-11-20T11:57:15;101751.97;;;24.83;24.73
50854;BME280;44154;45.506;-122.806;2022-11-20T12:02:29;101753.63;;;24.72;24.55
50854;BME280;44154;45.506;-122.806;2022-11-20T12:05:18;101747.41;;;24.65;24.88
50854;BME280;44154;45.506;-122.806;2022-11-20T12:08:03;101750.09;;;24.53;24.90
50854;BME280;44154;45.506;-122.806;2022-11-20T12:10:48;101763.00;;;24.65;24.83
50854;BME280;44154;45.506;-122.806;2022-11-20T12:16:02;101765.91;;;24.82;24.77
50854;BME280;44154;45.506;-122.806;2022-11-20T12:18:29;101767.72;;;24.88;24.76
50854;BME280;44154;45.506;-122.806;2022-11-20T12:24:13;101771.84;;;24.79;24.53
50854;BME280;44154;45.506;-122.806;2022-11-20T12:27:04;101775.63;;;24.66;24.68
50854;BME280;44154;45.506;-122.806;2022-11-20T12:30:10;101782.03;;;24.59;24.97
50854;BME280;44154;45.506;-122.806;2022-11-20T12:33:08;101772.56;;;24.55;24.81
50854;BME280;44154;45.506;-122.806;2022-11-20T12:41:51;101772.59;;;24.86;24.71
50854;BME280;44154;45.506;-122.806;2022-11-20T12:47:48;101766.84;;;24.75;24.73
50854;BME280;44154;45.506;-122.806;2022-11-20T12:50:28;101765.88;;;24.70;24.62
50854;BME280;44154;45.506;-122.806;2022-11-20T12:53:08;101765.13;;;24.63;24.70
50854;BME280;44154;45.506;-122.806;2022-11-20T12:55:42;101762.00;;;24.59;24.73
50854;BME280;44154;45.506;-122.806;2022-11-20T13:01:12;101751.88;;;24.78;24.63
50854;BME280;44154;45.506;-122.806;2022-11-20T13:07:05;101765.81;;;24.88;24.53
50854;BME280;44154;45.506;-122.806;2022-11-20T13:09:34;101750.19;;;24.77;24.45
50854;BME280;44154;45.506;-122.806;2022-11-20T13:12:13;101749.84;;;24.73;24.52
50854;BME280;44154;45.506;-122.806;2022-11-20T13:15:54;101755.88;;;24.64;24.58
50854;BME280;44154;45.506;-122.806;2022-11-20T13:18:04;101748.41;;;24.52;24.56
50854;BME280;44154;45.506;-122.806;2022-11-20T13:20:33;101752.91;;;24.65;24.63
50854;BME280;44154;45.506;-122.806;2022-11-20T13:23:00;101750.03;;;24.72;24.62
50854;BME280;44154;45.506;-122.806;2022-11-20T13:25:30;101751.41;;;24.81;24.53
50854;BME280;44154;45.506;-122.806;2022-11-20T13:27:58;101748.78;;;24.86;24.58
50854;BME280;44154;45.506;-122.806;2022-11-20T13:30:26;101712.44;;;24.67;24.58
50854;BME280;44154;45.506;-122.806;2022-11-20T13:35:33;101725.06;;;24.68;24.58